Back to Top

Language: 

My Weather Underground Personal Weather Station Historical Data with Graphs...

Delerius Weather Station Historical Data
Daily Summary for August 10, 2017 Units:  Metric    English   Both
« Previous Day
Next Day »
Daily Weekly Monthly Yearly Custom
  High: Low: Average:
Temperature: 22.8 °C 7.6 °C 15.2 °C
Dew Point: 12.4 °C 6.8 °C 9.9 °C
Humidity: 97 % 46 % 73 %
Wind Speed: 14.5 km/h 0 km/h 4.8 km/h
Wind Gust: 25.7 km/h - -
Wind:- - WSW
Pressure: 1024.9 hPa 1021.2 hPa -
Precipitation: 0 mm    
Historical Graphs
 
 
Tabular Data for August 10, 2017
Time Temperature Dew Point Pressure Wind Wind Speed Wind Gust Humidity Rainfall Rate (Hourly) solar Conditions
00:04 9.4 °C 7.8 °C 1023.9 hPa Calm     90 % 0 mm 0 W/m2
00:09 9.3 °C 7.7 °C 1024.3 hPa Calm     90 % 0 mm 0 W/m2
00:14 9.3 °C 7.9 °C 1024.3 hPa Calm   1.6 km/h 91 % 0 mm 0 W/m2
00:19 9.3 °C 7.9 °C 1024.3 hPa Calm   3.2 km/h 91 % 0 mm 0 W/m2
00:24 9.2 °C 7.8 °C 1024.3 hPa Calm   3.2 km/h 91 % 0 mm 0 W/m2
00:29 9.2 °C 7.8 °C 1024.3 hPa NNE 1.6 km/h 6.4 km/h 91 % 0 mm 0 W/m2
00:34 9.2 °C 7.9 °C 1024.3 hPa NNE 3.2 km/h 8 km/h 92 % 0 mm 0 W/m2
00:39 9.2 °C 7.9 °C 1024.3 hPa NNE 1.6 km/h 8 km/h 92 % 0 mm 0 W/m2
00:44 9.2 °C 7.9 °C 1024.3 hPa Calm   1.6 km/h 92 % 0 mm 0 W/m2
00:49 9.2 °C 7.9 °C 1024.3 hPa Calm   3.2 km/h 92 % 0 mm 0 W/m2
00:54 9.1 °C 7.9 °C 1024.3 hPa Calm   3.2 km/h 92 % 0 mm 0 W/m2
00:59 9.1 °C 7.9 °C 1024.3 hPa Calm   3.2 km/h 92 % 0 mm 0 W/m2
01:04 9 °C 7.8 °C 1024.3 hPa Calm   3.2 km/h 92 % 0 mm 0 W/m2
01:09 8.9 °C 7.7 °C 1024.3 hPa Calm   3.2 km/h 92 % 0 mm 0 W/m2
01:14 8.9 °C 7.7 °C 1024.3 hPa Calm   1.6 km/h 92 % 0 mm 0 W/m2
01:19 8.8 °C 7.6 °C 1024.3 hPa Calm   1.6 km/h 92 % 0 mm 0 W/m2
01:24 8.7 °C 7.5 °C 1024.3 hPa Calm     92 % 0 mm 0 W/m2
01:29 8.6 °C 7.4 °C 1024.3 hPa Calm     92 % 0 mm 0 W/m2
01:34 8.5 °C 7.3 °C 1024.3 hPa Calm     92 % 0 mm 0 W/m2
01:39 8.4 °C 7.2 °C 1024.3 hPa Calm     92 % 0 mm 0 W/m2
01:44 8.3 °C 7.1 °C 1024.3 hPa Calm     92 % 0 mm 0 W/m2
01:49 8.3 °C 7.2 °C 1024.6 hPa Calm     93 % 0 mm 0 W/m2
01:54 8.2 °C 7.1 °C 1024.6 hPa Calm     93 % 0 mm 0 W/m2
01:59 8.1 °C 7.1 °C 1024.6 hPa Calm     93 % 0 mm 0 W/m2
02:04 8.1 °C 7.1 °C 1024.6 hPa Calm     93 % 0 mm 0 W/m2
02:09 8 °C 6.9 °C 1024.6 hPa Calm   3.2 km/h 93 % 0 mm 0 W/m2
02:10 8 °C 6.9 °C 1024.6 hPa Calm   3.2 km/h 93 % 0 mm 0 W/m2
02:15 8 °C 6.9 °C 1024.6 hPa Calm   3.2 km/h 93 % 0 mm 0 W/m2
02:20 8.1 °C 7.2 °C 1024.6 hPa Calm   3.2 km/h 94 % 0 mm 0 W/m2
02:25 8.1 °C 7.2 °C 1024.6 hPa Calm   3.2 km/h 94 % 0 mm 0 W/m2
02:30 8.1 °C 7.2 °C 1024.6 hPa Calm   3.2 km/h 94 % 0 mm 0 W/m2
02:35 8.1 °C 7.2 °C 1024.6 hPa Calm     94 % 0 mm 0 W/m2
02:40 8.1 °C 7.2 °C 1024.6 hPa Calm     94 % 0 mm 0 W/m2
02:45 8.1 °C 7.2 °C 1024.6 hPa Calm     94 % 0 mm 0 W/m2
02:50 8 °C 7.1 °C 1024.6 hPa Calm   3.2 km/h 94 % 0 mm 0 W/m2
02:55 7.9 °C 7 °C 1024.6 hPa Calm   3.2 km/h 94 % 0 mm 0 W/m2
03:00 7.8 °C 6.9 °C 1024.9 hPa Calm     94 % 0 mm 0 W/m2
03:05 7.8 °C 6.9 °C 1024.9 hPa Calm     94 % 0 mm 0 W/m2
03:10 7.8 °C 6.9 °C 1024.6 hPa Calm     94 % 0 mm 0 W/m2
03:15 7.8 °C 6.9 °C 1024.6 hPa Calm     94 % 0 mm 0 W/m2
03:20 7.8 °C 7.1 °C 1024.6 hPa Calm     95 % 0 mm 0 W/m2
03:25 7.8 °C 7.1 °C 1024.6 hPa Calm     95 % 0 mm 0 W/m2
03:31 7.7 °C 6.8 °C 1024.6 hPa Calm     94 % 0 mm 0 W/m2
03:36 7.7 °C 6.8 °C 1024.6 hPa Calm     94 % 0 mm 0 W/m2
03:41 7.6 °C 6.8 °C 1024.6 hPa Calm     95 % 0 mm 0 W/m2
03:46 7.6 °C 6.8 °C 1024.6 hPa Calm     95 % 0 mm 0 W/m2
03:51 7.6 °C 6.8 °C 1024.6 hPa Calm     95 % 0 mm 0 W/m2
03:56 7.6 °C 6.8 °C 1024.6 hPa Calm     95 % 0 mm 0 W/m2
03:57 7.6 °C 6.8 °C 1024.6 hPa Calm     95 % 0 mm 0 W/m2
04:02 7.6 °C 6.8 °C 1024.6 hPa NNE 1.6 km/h 8 km/h 95 % 0 mm 0 W/m2
04:07 7.7 °C 6.9 °C 1024.6 hPa NNE 1.6 km/h 8 km/h 95 % 0 mm 0 W/m2
04:12 7.8 °C 7.1 °C 1024.6 hPa NNE 1.6 km/h 4.8 km/h 95 % 0 mm 0 W/m2
04:17 7.8 °C 7.1 °C 1024.6 hPa NNE 1.6 km/h 4.8 km/h 95 % 0 mm 0 W/m2
04:23 7.8 °C 7.1 °C 1024.6 hPa Calm   6.4 km/h 95 % 0 mm 0 W/m2
04:24 7.9 °C 7.2 °C 1024.6 hPa Calm   6.4 km/h 95 % 0 mm 0 W/m2
04:27 7.9 °C 7.2 °C 1024.6 hPa Calm   6.4 km/h 95 % 0 mm 0 W/m2
04:32 7.9 °C 7.2 °C 1024.6 hPa Calm     95 % 0 mm 0 W/m2
04:34 7.9 °C 7.2 °C 1024.6 hPa Calm     95 % 0 mm 0 W/m2
04:37 7.9 °C 7.2 °C 1024.6 hPa Calm     95 % 0 mm 0 W/m2
04:42 7.9 °C 7.2 °C 1024.6 hPa Calm   1.6 km/h 95 % 0 mm 0 W/m2
04:47 7.9 °C 7.2 °C 1024.6 hPa Calm   1.6 km/h 95 % 0 mm 0 W/m2
04:52 8 °C 7.2 °C 1024.6 hPa Calm   1.6 km/h 95 % 0 mm 0 W/m2
04:57 8 °C 7.2 °C 1024.6 hPa Calm   1.6 km/h 95 % 0 mm 0 W/m2
05:02 8.1 °C 7.5 °C 1024.6 hPa Calm     96 % 0 mm 0 W/m2
05:07 8.2 °C 7.6 °C 1024.6 hPa Calm     96 % 0 mm 0 W/m2
05:12 8.2 °C 7.6 °C 1024.3 hPa Calm     96 % 0 mm 0 W/m2
05:17 8.3 °C 7.7 °C 1024.6 hPa Calm     96 % 0 mm 0 W/m2
05:22 8.4 °C 7.8 °C 1024.6 hPa Calm     96 % 0 mm 0 W/m2
05:27 8.6 °C 8 °C 1024.6 hPa Calm     96 % 0 mm 0 W/m2
05:32 8.6 °C 8 °C 1024.6 hPa Calm     96 % 0 mm 0 W/m2
05:37 8.6 °C 8 °C 1024.6 hPa Calm     96 % 0 mm 5 W/m2
05:42 8.7 °C 8.1 °C 1024.6 hPa Calm     96 % 0 mm 7 W/m2
05:47 8.8 °C 8.2 °C 1024.6 hPa Calm     96 % 0 mm 11 W/m2
05:52 8.9 °C 8.3 °C 1024.6 hPa Calm     96 % 0 mm 14 W/m2
05:57 8.9 °C 8.3 °C 1024.6 hPa Calm   1.6 km/h 96 % 0 mm 18 W/m2
06:02 9 °C 8.4 °C 1024.6 hPa Calm   3.2 km/h 96 % 0 mm 19 W/m2
06:07 9.1 °C 8.5 °C 1024.3 hPa Calm   3.2 km/h 96 % 0 mm 23 W/m2
06:12 9.1 °C 8.5 °C 1024.3 hPa Calm     96 % 0 mm 18 W/m2
06:17 9.1 °C 8.5 °C 1024.6 hPa Calm   3.2 km/h 96 % 0 mm 19 W/m2
06:22 9.1 °C 8.5 °C 1024.6 hPa Calm   3.2 km/h 96 % 0 mm 19 W/m2
06:27 9.1 °C 8.5 °C 1024.6 hPa Calm     96 % 0 mm 21 W/m2
06:32 9.1 °C 8.5 °C 1024.6 hPa Calm     96 % 0 mm 58 W/m2
06:37 9.2 °C 8.6 °C 1024.6 hPa Calm     96 % 0 mm 90 W/m2
06:42 9.3 °C 8.7 °C 1024.6 hPa Calm     96 % 0 mm 104 W/m2
06:47 9.6 °C 9.2 °C 1024.6 hPa Calm     97 % 0 mm 114 W/m2
06:52 9.9 °C 9.4 °C 1024.6 hPa Calm     97 % 0 mm 125 W/m2
06:57 10 °C 9.4 °C 1024.6 hPa Calm     96 % 0 mm 132 W/m2
07:02 10.2 °C 9.6 °C 1024.6 hPa Calm     96 % 0 mm 74 W/m2
07:07 10.3 °C 9.7 °C 1024.6 hPa Calm     96 % 0 mm 146 W/m2
07:12 10.5 °C 9.7 °C 1024.6 hPa Calm     95 % 0 mm 169 W/m2
07:17 10.7 °C 10.1 °C 1024.9 hPa Calm     96 % 0 mm 179 W/m2
07:22 11 °C 10.4 °C 1024.9 hPa Calm     96 % 0 mm 193 W/m2
07:27 11.2 °C 10.4 °C 1024.9 hPa Calm     95 % 0 mm 207 W/m2
07:32 11.7 °C 11.1 °C 1024.9 hPa Calm   1.6 km/h 96 % 0 mm 220 W/m2
07:37 12.1 °C 11.3 °C 1024.9 hPa Calm   1.6 km/h 95 % 0 mm 232 W/m2
07:42 12.7 °C 11.8 °C 1024.9 hPa Calm     94 % 0 mm 248 W/m2
07:48 13.1 °C 11.8 °C 1024.9 hPa Calm     92 % 0 mm 264 W/m2
07:53 13.4 °C 11.6 °C 1024.9 hPa Calm     89 % 0 mm 278 W/m2
07:58 13.6 °C 11.7 °C 1024.9 hPa Calm     88 % 0 mm 288 W/m2
08:03 13.8 °C 11.7 °C 1024.9 hPa Calm   4.8 km/h 87 % 0 mm 301 W/m2
08:08 14 °C 11.5 °C 1024.9 hPa Calm   4.8 km/h 85 % 0 mm 318 W/m2
08:13 14.2 °C 11.6 °C 1024.9 hPa Calm   3.2 km/h 84 % 0 mm 334 W/m2
08:18 14.6 °C 11.7 °C 1024.9 hPa Calm   3.2 km/h 83 % 0 mm 345 W/m2
08:23 14.9 °C 11.5 °C 1024.9 hPa Calm   3.2 km/h 80 % 0 mm 362 W/m2
08:28 15.1 °C 11.7 °C 1024.9 hPa Calm   3.2 km/h 80 % 0 mm 392 W/m2
08:33 15.3 °C 11.5 °C 1024.9 hPa Calm   8 km/h 78 % 0 mm 276 W/m2
08:38 15.4 °C 11.4 °C 1024.9 hPa NW 1.6 km/h 8 km/h 77 % 0 mm 417 W/m2
08:43 15.6 °C 11.6 °C 1024.9 hPa WNW 1.6 km/h 6.4 km/h 77 % 0 mm 464 W/m2
08:48 15.9 °C 11.3 °C 1024.9 hPa WNW 1.6 km/h 8 km/h 74 % 0 mm 487 W/m2
08:53 15.9 °C 11.1 °C 1024.9 hPa WNW 3.2 km/h 8 km/h 73 % 0 mm 480 W/m2
08:58 15.9 °C 11.1 °C 1024.9 hPa WNW 3.2 km/h 8 km/h 73 % 0 mm 483 W/m2
09:03 16.2 °C 10.9 °C 1024.9 hPa WNW 1.6 km/h 8 km/h 71 % 0 mm 490 W/m2
09:08 16.3 °C 10.8 °C 1024.9 hPa WSW 1.6 km/h 8 km/h 70 % 0 mm 485 W/m2
09:13 16.6 °C 11.1 °C 1024.9 hPa SSW 3.2 km/h 8 km/h 70 % 0 mm 504 W/m2
09:18 16.7 °C 11 °C 1024.9 hPa SSW 3.2 km/h 8 km/h 69 % 0 mm 508 W/m2
09:21 16.7 °C 11 °C 1024.9 hPa SSW 4.8 km/h 9.7 km/h 69 % 0 mm 415 W/m2
09:26 16.6 °C 10.7 °C 1024.9 hPa SW 4.8 km/h 9.7 km/h 68 % 0 mm 415 W/m2
09:31 16.4 °C 10.7 °C 1024.9 hPa SSW 4.8 km/h 9.7 km/h 69 % 0 mm 396 W/m2
09:36 16.6 °C 10.9 °C 1024.9 hPa SW 3.2 km/h 9.7 km/h 69 % 0 mm 176 W/m2
09:37 16.6 °C 10.9 °C 1024.9 hPa SW 1.6 km/h 9.7 km/h 69 % 0 mm 172 W/m2
09:42 16.7 °C 11 °C 1024.9 hPa WSW 3.2 km/h 9.7 km/h 69 % 0 mm 517 W/m2
09:47 16.7 °C 10.8 °C 1024.9 hPa WSW 3.2 km/h 9.7 km/h 68 % 0 mm 156 W/m2
09:52 16.6 °C 10.9 °C 1024.9 hPa SSW 4.8 km/h 9.7 km/h 69 % 0 mm 675 W/m2
09:57 16.7 °C 10.8 °C 1024.9 hPa SSW 3.2 km/h 9.7 km/h 68 % 0 mm 555 W/m2
10:02 17.1 °C 10.9 °C 1024.9 hPa South 1.6 km/h 6.4 km/h 67 % 0 mm 747 W/m2
10:07 17.4 °C 11.2 °C 1024.9 hPa South 1.6 km/h 6.4 km/h 67 % 0 mm 798 W/m2
10:12 17.7 °C 11.1 °C 1024.9 hPa SSW 3.2 km/h 9.7 km/h 65 % 0 mm 373 W/m2
10:18 17.9 °C 11 °C 1024.9 hPa SW 4.8 km/h 9.7 km/h 64 % 0 mm 680 W/m2
10:23 18.1 °C 11.2 °C 1024.9 hPa SW 3.2 km/h 9.7 km/h 64 % 0 mm 782 W/m2
10:28 18.3 °C 11.1 °C 1024.9 hPa SSW 3.2 km/h 12.9 km/h 63 % 0 mm 772 W/m2
10:33 18.2 °C 10.8 °C 1024.9 hPa SSW 4.8 km/h 12.9 km/h 62 % 0 mm 413 W/m2
10:38 18.1 °C 11.2 °C 1024.9 hPa South 3.2 km/h 12.9 km/h 64 % 0 mm 814 W/m2
10:43 18.4 °C 11.2 °C 1024.9 hPa SW 3.2 km/h 9.7 km/h 63 % 0 mm 791 W/m2
10:48 18.8 °C 11.4 °C 1024.6 hPa West 4.8 km/h 11.3 km/h 62 % 0 mm 805 W/m2
10:53 19 °C 11.1 °C 1024.6 hPa West 4.8 km/h 11.3 km/h 60 % 0 mm 789 W/m2
10:58 18.8 °C 10.6 °C 1024.6 hPa SSW 4.8 km/h 9.7 km/h 59 % 0 mm 821 W/m2
11:03 18.6 °C 10.7 °C 1024.6 hPa South 6.4 km/h 9.7 km/h 60 % 0 mm 842 W/m2
11:08 18.8 °C 11.1 °C 1024.6 hPa SSE 4.8 km/h 9.7 km/h 61 % 0 mm 896 W/m2
11:13 19.1 °C 11.7 °C 1024.6 hPa SSW 3.2 km/h 11.3 km/h 62 % 0 mm 956 W/m2
11:18 19.4 °C 11.7 °C 1024.6 hPa West 6.4 km/h 14.5 km/h 61 % 0 mm 935 W/m2
11:23 19.6 °C 11.6 °C 1024.6 hPa West 9.7 km/h 14.5 km/h 60 % 0 mm 872 W/m2
11:28 19.7 °C 11.7 °C 1024.6 hPa West 8 km/h 12.9 km/h 60 % 0 mm 830 W/m2
11:33 20.1 °C 11.8 °C 1024.3 hPa WNW 8 km/h 12.9 km/h 59 % 0 mm 831 W/m2
11:38 20.3 °C 10.9 °C 1024.3 hPa NW 6.4 km/h 12.9 km/h 55 % 0 mm 823 W/m2
11:43 20.1 °C 11.1 °C 1024.3 hPa West 3.2 km/h 12.9 km/h 56 % 0 mm 821 W/m2
11:48 20.2 °C 11.1 °C 1024.3 hPa WSW 3.2 km/h 12.9 km/h 56 % 0 mm 833 W/m2
11:53 20.1 °C 11.1 °C 1024.3 hPa SW 4.8 km/h 14.5 km/h 56 % 0 mm 134 W/m2
11:58 19.6 °C 10.8 °C 1024.3 hPa SW 8 km/h 17.7 km/h 57 % 0 mm 128 W/m2
12:03 19.4 °C 11.2 °C 1024.3 hPa SW 6.4 km/h 17.7 km/h 59 % 0 mm 879 W/m2
12:08 19.4 °C 10.7 °C 1024.3 hPa WSW 4.8 km/h 14.5 km/h 57 % 0 mm 867 W/m2
12:13 19.7 °C 10.4 °C 1023.9 hPa WSW 3.2 km/h 11.3 km/h 55 % 0 mm 868 W/m2
12:18 19.9 °C 10.6 °C 1023.9 hPa West 4.8 km/h 11.3 km/h 55 % 0 mm 888 W/m2
12:23 20.2 °C 11.1 °C 1023.9 hPa West 6.4 km/h 11.3 km/h 56 % 0 mm 939 W/m2
12:28 20.4 °C 11.8 °C 1024.3 hPa SW 4.8 km/h 12.9 km/h 58 % 0 mm 1005 W/m2
12:33 20.6 °C 12.1 °C 1024.3 hPa WSW 9.7 km/h 17.7 km/h 58 % 0 mm 1035 W/m2
12:38 20.7 °C 11.3 °C 1023.9 hPa WSW 9.7 km/h 17.7 km/h 55 % 0 mm 956 W/m2
12:43 20.8 °C 11.7 °C 1023.9 hPa West 6.4 km/h 14.5 km/h 56 % 0 mm 918 W/m2
12:48 21 °C 11.9 °C 1024.3 hPa WNW 6.4 km/h 14.5 km/h 56 % 0 mm 1005 W/m2
12:53 21.1 °C 11.7 °C 1023.9 hPa WNW 8 km/h 16.1 km/h 55 % 0 mm 206 W/m2
12:58 20.8 °C 11.4 °C 1023.9 hPa NW 8 km/h 16.1 km/h 55 % 0 mm 251 W/m2
13:03 20.9 °C 11.8 °C 1023.9 hPa NW 4.8 km/h 12.9 km/h 56 % 0 mm 875 W/m2
13:08 21 °C 11.3 °C 1023.9 hPa WSW 6.4 km/h 14.5 km/h 54 % 0 mm 895 W/m2
13:13 21.2 °C 10.9 °C 1023.9 hPa WSW 6.4 km/h 14.5 km/h 52 % 0 mm 962 W/m2
13:18 21.3 °C 11.1 °C 1023.9 hPa West 3.2 km/h 11.3 km/h 52 % 0 mm 1011 W/m2
13:23 21.3 °C 10.2 °C 1023.9 hPa WSW 4.8 km/h 19.3 km/h 49 % 0 mm 244 W/m2
13:24 21.3 °C 10.2 °C 1023.9 hPa WSW 6.4 km/h 19.3 km/h 49 % 0 mm 251 W/m2
13:29 21.3 °C 10.4 °C 1023.9 hPa WSW 9.7 km/h 19.3 km/h 50 % 0 mm 998 W/m2
13:34 21.6 °C 10.1 °C 1023.6 hPa West 8 km/h 17.7 km/h 48 % 0 mm 988 W/m2
13:39 21.7 °C 9.6 °C 1023.9 hPa WNW 4.8 km/h 14.5 km/h 46 % 0 mm 942 W/m2
13:44 21.8 °C 10 °C 1023.6 hPa West 6.4 km/h 14.5 km/h 47 % 0 mm 858 W/m2
13:49 21.9 °C 10.7 °C 1023.6 hPa West 6.4 km/h 14.5 km/h 49 % 0 mm 849 W/m2
13:54 21.9 °C 11 °C 1023.6 hPa West 4.8 km/h 11.3 km/h 50 % 0 mm 306 W/m2
13:59 21.8 °C 11.2 °C 1023.6 hPa WNW 6.4 km/h 17.7 km/h 51 % 0 mm 294 W/m2
14:04 21.7 °C 10.5 °C 1023.6 hPa NW 8 km/h 17.7 km/h 49 % 0 mm 283 W/m2
14:09 21.6 °C 10.7 °C 1023.2 hPa NW 4.8 km/h 16.1 km/h 50 % 0 mm 788 W/m2
14:14 21.6 °C 10.4 °C 1023.2 hPa NW 3.2 km/h 12.9 km/h 49 % 0 mm 772 W/m2
14:19 21.6 °C 9.8 °C 1023.2 hPa NW 3.2 km/h 12.9 km/h 47 % 0 mm 884 W/m2
14:24 21.8 °C 10.6 °C 1023.2 hPa WNW 3.2 km/h 9.7 km/h 49 % 0 mm 919 W/m2
14:29 21.9 °C 10.1 °C 1023.2 hPa West 4.8 km/h 14.5 km/h 47 % 0 mm 914 W/m2
14:34 22.1 °C 10.6 °C 1023.2 hPa West 6.4 km/h 14.5 km/h 48 % 0 mm 842 W/m2
14:40 22 °C 10.2 °C 1023.2 hPa WSW 9.7 km/h 16.1 km/h 47 % 0 mm 916 W/m2
14:45 21.8 °C 10.6 °C 1022.9 hPa SW 9.7 km/h 16.1 km/h 49 % 0 mm 947 W/m2
14:50 21.9 °C 9.8 °C 1022.9 hPa SW 9.7 km/h 17.7 km/h 46 % 0 mm 962 W/m2
14:55 22.3 °C 10.4 °C 1022.9 hPa WSW 9.7 km/h 17.7 km/h 47 % 0 mm 953 W/m2
15:00 22.5 °C 11.2 °C 1022.9 hPa WSW 11.3 km/h 25.7 km/h 49 % 0 mm 919 W/m2
15:05 22.3 °C 11.4 °C 1022.9 hPa WSW 12.9 km/h 25.7 km/h 50 % 0 mm 921 W/m2
15:10 22.6 °C 11.3 °C 1022.9 hPa West 12.9 km/h 17.7 km/h 49 % 0 mm 888 W/m2
15:15 22.7 °C 11.4 °C 1022.9 hPa West 11.3 km/h 17.7 km/h 49 % 0 mm 807 W/m2
15:20 22.8 °C 11.8 °C 1022.9 hPa WSW 11.3 km/h 19.3 km/h 50 % 0 mm 802 W/m2
15:25 22.5 °C 11.6 °C 1022.9 hPa WSW 12.9 km/h 19.3 km/h 50 % 0 mm 712 W/m2
15:30 22.3 °C 11.4 °C 1022.9 hPa West 11.3 km/h 19.3 km/h 50 % 0 mm 183 W/m2
15:35 22 °C 11.4 °C 1022.9 hPa WSW 9.7 km/h 16.1 km/h 51 % 0 mm 744 W/m2
15:40 22.1 °C 11.5 °C 1022.6 hPa WSW 11.3 km/h 24.1 km/h 51 % 0 mm 149 W/m2
15:45 22.2 °C 12.2 °C 1022.6 hPa West 12.9 km/h 24.1 km/h 53 % 0 mm 726 W/m2
15:50 22.2 °C 12.2 °C 1022.6 hPa West 14.5 km/h 25.7 km/h 53 % 0 mm 680 W/m2
15:55 22.2 °C 11.9 °C 1022.6 hPa West 14.5 km/h 25.7 km/h 52 % 0 mm 677 W/m2
16:00 22.1 °C 11.8 °C 1022.6 hPa West 12.9 km/h 20.9 km/h 52 % 0 mm 670 W/m2
16:05 22.2 °C 12.2 °C 1022.6 hPa West 12.9 km/h 20.9 km/h 53 % 0 mm 657 W/m2
16:10 22.2 °C 11.6 °C 1022.2 hPa West 12.9 km/h 19.3 km/h 51 % 0 mm 661 W/m2
16:15 22 °C 11.7 °C 1022.2 hPa West 11.3 km/h 17.7 km/h 52 % 0 mm 135 W/m2
16:20 21.6 °C 11.9 °C 1022.2 hPa West 11.3 km/h 17.7 km/h 54 % 0 mm 190 W/m2
16:25 21.3 °C 11.6 °C 1022.2 hPa West 11.3 km/h 17.7 km/h 54 % 0 mm 207 W/m2
16:30 21.3 °C 11.6 °C 1022.2 hPa West 12.9 km/h 20.9 km/h 54 % 0 mm 155 W/m2
16:35 21.1 °C 12 °C 1022.2 hPa West 14.5 km/h 22.5 km/h 56 % 0 mm 527 W/m2
16:40 21 °C 12.2 °C 1022.2 hPa West 14.5 km/h 24.1 km/h 57 % 0 mm 601 W/m2
16:45 21 °C 11.9 °C 1022.2 hPa West 14.5 km/h 24.1 km/h 56 % 0 mm 128 W/m2
16:50 21.1 °C 12.2 °C 1021.9 hPa West 12.9 km/h 20.9 km/h 57 % 0 mm 543 W/m2
16:55 21.2 °C 12.1 °C 1021.9 hPa West 12.9 km/h 22.5 km/h 56 % 0 mm 555 W/m2
17:00 21.3 °C 12.4 °C 1021.9 hPa West 14.5 km/h 24.1 km/h 57 % 0 mm 543 W/m2
17:05 21.3 °C 12.2 °C 1021.9 hPa West 12.9 km/h 24.1 km/h 56 % 0 mm 536 W/m2
17:10 21.3 °C 12.2 °C 1021.9 hPa West 14.5 km/h 22.5 km/h 56 % 0 mm 568 W/m2
17:15 21.3 °C 12.2 °C 1021.9 hPa WNW 14.5 km/h 24.1 km/h 56 % 0 mm 517 W/m2
17:20 21.3 °C 11.9 °C 1021.9 hPa WNW 14.5 km/h 25.7 km/h 55 % 0 mm 473 W/m2
17:25 21.1 °C 11.4 °C 1021.9 hPa West 14.5 km/h 25.7 km/h 54 % 0 mm 135 W/m2
17:30 20.8 °C 10.9 °C 1021.9 hPa WSW 12.9 km/h 22.5 km/h 53 % 0 mm 446 W/m2
17:35 20.8 °C 10.9 °C 1021.9 hPa West 12.9 km/h 22.5 km/h 53 % 0 mm 436 W/m2
17:40 20.9 °C 11.2 °C 1021.9 hPa West 12.9 km/h 20.9 km/h 54 % 0 mm 399 W/m2
17:45 21 °C 11.6 °C 1021.9 hPa West 12.9 km/h 20.9 km/h 55 % 0 mm 392 W/m2
17:50 21.1 °C 11.4 °C 1021.9 hPa West 11.3 km/h 22.5 km/h 54 % 0 mm 374 W/m2
17:55 21.2 °C 11.2 °C 1021.9 hPa WNW 12.9 km/h 22.5 km/h 53 % 0 mm 355 W/m2
18:00 21.2 °C 11.2 °C 1021.9 hPa WNW 14.5 km/h 24.1 km/h 53 % 0 mm 345 W/m2
18:05 21.1 °C 11.2 °C 1021.9 hPa WNW 14.5 km/h 24.1 km/h 53 % 0 mm 332 W/m2
18:10 20.9 °C 11.2 °C 1021.9 hPa WNW 14.5 km/h 24.1 km/h 54 % 0 mm 315 W/m2
18:15 20.8 °C 11.2 °C 1021.9 hPa West 14.5 km/h 25.7 km/h 54 % 0 mm 295 W/m2
18:20 20.7 °C 11.3 °C 1021.6 hPa West 12.9 km/h 25.7 km/h 55 % 0 mm 287 W/m2
18:25 20.7 °C 11.3 °C 1021.6 hPa West 12.9 km/h 20.9 km/h 55 % 0 mm 272 W/m2
18:30 20.6 °C 11.2 °C 1021.6 hPa West 12.9 km/h 20.9 km/h 55 % 0 mm 258 W/m2
18:35 20.5 °C 11.4 °C 1021.6 hPa West 11.3 km/h 20.9 km/h 56 % 0 mm 243 W/m2
18:40 20.2 °C 10.9 °C 1021.6 hPa West 12.9 km/h 22.5 km/h 55 % 0 mm 229 W/m2
18:45 20.1 °C 11.3 °C 1021.6 hPa WSW 14.5 km/h 22.5 km/h 57 % 0 mm 214 W/m2
18:50 20 °C 11.2 °C 1021.6 hPa West 12.9 km/h 22.5 km/h 57 % 0 mm 202 W/m2
18:55 20 °C 10.9 °C 1021.6 hPa West 12.9 km/h 22.5 km/h 56 % 0 mm 192 W/m2
19:00 20 °C 11.2 °C 1021.6 hPa West 12.9 km/h 19.3 km/h 57 % 0 mm 178 W/m2
19:05 19.9 °C 11.1 °C 1021.6 hPa West 12.9 km/h 22.5 km/h 57 % 0 mm 165 W/m2
19:10 19.8 °C 11.3 °C 1021.6 hPa West 12.9 km/h 22.5 km/h 58 % 0 mm 149 W/m2
19:15 19.7 °C 11.2 °C 1021.6 hPa West 11.3 km/h 17.7 km/h 58 % 0 mm 137 W/m2
19:20 19.6 °C 11.1 °C 1021.6 hPa WNW 12.9 km/h 22.5 km/h 58 % 0 mm 127 W/m2
19:25 19.5 °C 11.3 °C 1021.6 hPa WNW 12.9 km/h 22.5 km/h 59 % 0 mm 118 W/m2
19:30 19.4 °C 11.4 °C 1021.6 hPa WNW 12.9 km/h 20.9 km/h 60 % 0 mm 105 W/m2
19:35 19.2 °C 11.5 °C 1021.6 hPa WNW 12.9 km/h 20.9 km/h 61 % 0 mm 91 W/m2
19:40 19.1 °C 11.7 °C 1021.2 hPa WNW 9.7 km/h 20.9 km/h 62 % 0 mm 81 W/m2
19:45 18.9 °C 11.4 °C 1021.2 hPa WNW 9.7 km/h 17.7 km/h 62 % 0 mm 70 W/m2
19:50 18.7 °C 11.5 °C 1021.6 hPa WNW 11.3 km/h 20.9 km/h 63 % 0 mm 44 W/m2
19:55 18.3 °C 11.4 °C 1021.6 hPa WNW 11.3 km/h 20.9 km/h 64 % 0 mm 32 W/m2
20:00 18.1 °C 11.7 °C 1021.6 hPa WNW 9.7 km/h 19.3 km/h 66 % 0 mm 44 W/m2
20:05 17.9 °C 11.4 °C 1021.6 hPa WNW 8 km/h 16.1 km/h 66 % 0 mm 33 W/m2
20:11 17.7 °C 11.5 °C 1021.6 hPa WNW 9.7 km/h 16.1 km/h 67 % 0 mm 19 W/m2
20:16 17.4 °C 11.2 °C 1021.2 hPa WNW 9.7 km/h 16.1 km/h 67 % 0 mm 14 W/m2
20:21 17.3 °C 11.3 °C 1021.2 hPa WNW 8 km/h 12.9 km/h 68 % 0 mm 12 W/m2
20:26 17.1 °C 11.4 °C 1021.6 hPa WNW 9.7 km/h 14.5 km/h 69 % 0 mm 11 W/m2
20:31 16.9 °C 11.2 °C 1021.6 hPa WNW 9.7 km/h 16.1 km/h 69 % 0 mm 9 W/m2
20:36 16.7 °C 11.2 °C 1021.6 hPa WNW 9.7 km/h 16.1 km/h 70 % 0 mm 5 W/m2
20:41 16.5 °C 11.2 °C 1021.6 hPa WNW 9.7 km/h 16.1 km/h 71 % 0 mm 0 W/m2
20:46 16.3 °C 11.1 °C 1021.6 hPa WNW 9.7 km/h 16.1 km/h 71 % 0 mm 0 W/m2
20:51 16.1 °C 10.6 °C 1021.6 hPa WNW 9.7 km/h 16.1 km/h 70 % 0 mm 0 W/m2
20:56 15.9 °C 10.4 °C 1021.6 hPa WNW 9.7 km/h 16.1 km/h 70 % 0 mm 0 W/m2
21:01 15.8 °C 10.3 °C 1021.6 hPa WNW 9.7 km/h 16.1 km/h 70 % 0 mm 0 W/m2
21:06 15.6 °C 10.3 °C 1021.6 hPa WNW 9.7 km/h 14.5 km/h 71 % 0 mm 0 W/m2
21:11 15.4 °C 10.2 °C 1021.9 hPa WNW 8 km/h 12.9 km/h 71 % 0 mm 0 W/m2
21:17 15.2 °C 10 °C 1021.6 hPa WNW 8 km/h 16.1 km/h 71 % 0 mm 0 W/m2
21:22 15.1 °C 10.1 °C 1021.9 hPa WNW 6.4 km/h 16.1 km/h 72 % 0 mm 0 W/m2
21:27 14.9 °C 9.9 °C 1021.9 hPa West 4.8 km/h 9.7 km/h 72 % 0 mm 0 W/m2
21:32 14.7 °C 9.7 °C 1021.9 hPa West 4.8 km/h 8 km/h 72 % 0 mm 0 W/m2
21:37 14.6 °C 9.8 °C 1021.9 hPa West 4.8 km/h 8 km/h 73 % 0 mm 0 W/m2
21:42 14.4 °C 9.8 °C 1021.9 hPa West 3.2 km/h 8 km/h 74 % 0 mm 0 W/m2
21:47 14.2 °C 9.8 °C 1021.9 hPa West 3.2 km/h 9.7 km/h 75 % 0 mm 0 W/m2
21:52 14 °C 9.8 °C 1021.9 hPa West 6.4 km/h 11.3 km/h 76 % 0 mm 0 W/m2
21:57 13.8 °C 9.7 °C 1021.9 hPa WNW 8 km/h 12.9 km/h 76 % 0 mm 0 W/m2
22:02 13.7 °C 9.7 °C 1021.9 hPa WNW 8 km/h 12.9 km/h 77 % 0 mm 0 W/m2
22:07 13.6 °C 9.7 °C 1021.9 hPa WNW 8 km/h 11.3 km/h 77 % 0 mm 0 W/m2
22:12 13.4 °C 9.7 °C 1021.9 hPa WNW 6.4 km/h 12.9 km/h 78 % 0 mm 0 W/m2
22:17 13.3 °C 9.6 °C 1021.9 hPa WNW 6.4 km/h 12.9 km/h 78 % 0 mm 0 W/m2
22:22 13.2 °C 9.4 °C 1021.9 hPa WNW 4.8 km/h 9.7 km/h 78 % 0 mm 0 W/m2
22:27 13.1 °C 9.6 °C 1021.9 hPa WNW 4.8 km/h 9.7 km/h 79 % 0 mm 0 W/m2
22:28 13.1 °C 9.6 °C 1021.9 hPa WNW 4.8 km/h 9.7 km/h 79 % 0 mm 0 W/m2
22:33 13 °C 9.4 °C 1021.9 hPa WNW 4.8 km/h 9.7 km/h 79 % 0 mm 0 W/m2
22:38 12.9 °C 9.3 °C 1021.9 hPa WNW 3.2 km/h 8 km/h 79 % 0 mm 0 W/m2
22:43 12.8 °C 9.2 °C 1021.9 hPa WNW 1.6 km/h 8 km/h 79 % 0 mm 0 W/m2
22:48 12.7 °C 9.3 °C 1021.9 hPa Calm   6.4 km/h 80 % 0 mm 0 W/m2
22:53 12.6 °C 9.2 °C 1021.9 hPa Calm   3.2 km/h 80 % 0 mm 0 W/m2
22:58 12.4 °C 9.1 °C 1021.9 hPa Calm   1.6 km/h 80 % 0 mm 0 W/m2
23:03 12.3 °C 9.1 °C 1021.9 hPa Calm   1.6 km/h 81 % 0 mm 0 W/m2
23:08 12.3 °C 9.1 °C 1021.9 hPa Calm   3.2 km/h 81 % 0 mm 0 W/m2
23:13 12.2 °C 9.2 °C 1021.9 hPa WNW 1.6 km/h 8 km/h 82 % 0 mm 0 W/m2
23:18 12.2 °C 9.2 °C 1021.9 hPa WNW 3.2 km/h 8 km/h 82 % 0 mm 0 W/m2
23:23 12.1 °C 9.1 °C 1021.9 hPa WNW 1.6 km/h 8 km/h 82 % 0 mm 0 W/m2
23:24 12.1 °C 9.1 °C 1021.9 hPa WNW 1.6 km/h 6.4 km/h 82 % 0 mm 0 W/m2
23:29 12.1 °C 9.3 °C 1021.9 hPa Calm   4.8 km/h 83 % 0 mm 0 W/m2
23:34 12.1 °C 9.3 °C 1021.9 hPa Calm   3.2 km/h 83 % 0 mm 0 W/m2
23:39 11.9 °C 8.9 °C 1021.6 hPa Calm     82 % 0 mm 0 W/m2
23:44 11.8 °C 9 °C 1021.6 hPa Calm     83 % 0 mm 0 W/m2
23:49 11.6 °C 8.8 °C 1021.6 hPa Calm     83 % 0 mm 0 W/m2
23:54 11.4 °C 8.8 °C 1021.6 hPa Calm     84 % 0 mm 0 W/m2
23:59 11.3 °C 8.7 °C 1021.6 hPa Calm     84 % 0 mm 0 W/m2
Delerius-Weather
Compliments of Weather Underground - 2.5 mb

Data updates at regular intervals.